sensor_id;sensor_type;location;lat;lon;timestamp;P1;durP1;ratioP1;P2;durP2;ratioP2
58928;SDS011;44713;53.378;10.022;2023-02-28T00:00:12;14.27;;;8.35;;
58928;SDS011;44713;53.378;10.022;2023-02-28T00:02:39;15.00;;;7.85;;
58928;SDS011;44713;53.378;10.022;2023-02-28T00:05:07;18.75;;;8.70;;
58928;SDS011;44713;53.378;10.022;2023-02-28T00:07:33;15.45;;;7.70;;
58928;SDS011;44713;53.378;10.022;2023-02-28T00:09:59;13.50;;;7.90;;
58928;SDS011;44713;53.378;10.022;2023-02-28T00:12:25;15.23;;;7.78;;
58928;SDS011;44713;53.378;10.022;2023-02-28T00:14:50;13.55;;;7.28;;
58928;SDS011;44713;53.378;10.022;2023-02-28T00:17:16;12.40;;;7.32;;
58928;SDS011;44713;53.378;10.022;2023-02-28T00:19:43;13.40;;;7.25;;
58928;SDS011;44713;53.378;10.022;2023-02-28T00:22:08;12.75;;;5.95;;
58928;SDS011;44713;53.378;10.022;2023-02-28T00:24:34;13.50;;;6.82;;
58928;SDS011;44713;53.378;10.022;2023-02-28T00:27:00;12.40;;;6.40;;
58928;SDS011;44713;53.378;10.022;2023-02-28T00:29:25;10.55;;;5.90;;
58928;SDS011;44713;53.378;10.022;2023-02-28T00:31:50;13.18;;;6.32;;
58928;SDS011;44713;53.378;10.022;2023-02-28T00:34:16;9.50;;;5.82;;
58928;SDS011;44713;53.378;10.022;2023-02-28T00:36:41;11.45;;;6.00;;
58928;SDS011;44713;53.378;10.022;2023-02-28T00:39:10;10.57;;;6.20;;
58928;SDS011;44713;53.378;10.022;2023-02-28T00:41:36;13.00;;;6.43;;
58928;SDS011;44713;53.378;10.022;2023-02-28T00:44:01;10.95;;;5.95;;
58928;SDS011;44713;53.378;10.022;2023-02-28T00:46:27;13.38;;;6.57;;
58928;SDS011;44713;53.378;10.022;2023-02-28T00:48:52;9.57;;;6.10;;
58928;SDS011;44713;53.378;10.022;2023-02-28T00:51:17;10.95;;;6.13;;
58928;SDS011;44713;53.378;10.022;2023-02-28T00:53:43;10.20;;;5.80;;
58928;SDS011;44713;53.378;10.022;2023-02-28T00:56:08;11.25;;;6.22;;
58928;SDS011;44713;53.378;10.022;2023-02-28T00:58:33;9.35;;;5.20;;
58928;SDS011;44713;53.378;10.022;2023-02-28T01:00:59;9.07;;;5.85;;
58928;SDS011;44713;53.378;10.022;2023-02-28T01:03:24;10.68;;;5.93;;
58928;SDS011;44713;53.378;10.022;2023-02-28T01:05:51;12.80;;;5.38;;
58928;SDS011;44713;53.378;10.022;2023-02-28T01:08:18;9.98;;;6.10;;
58928;SDS011;44713;53.378;10.022;2023-02-28T01:10:43;9.98;;;5.65;;
58928;SDS011;44713;53.378;10.022;2023-02-28T01:13:08;9.27;;;5.43;;
58928;SDS011;44713;53.378;10.022;2023-02-28T01:15:36;10.20;;;5.20;;
58928;SDS011;44713;53.378;10.022;2023-02-28T01:18:03;9.60;;;5.38;;
58928;SDS011;44713;53.378;10.022;2023-02-28T01:20:30;10.35;;;6.18;;
58928;SDS011;44713;53.378;10.022;2023-02-28T01:22:55;11.63;;;6.28;;
58928;SDS011;44713;53.378;10.022;2023-02-28T01:25:20;11.48;;;6.13;;
58928;SDS011;44713;53.378;10.022;2023-02-28T01:27:46;10.70;;;6.30;;
58928;SDS011;44713;53.378;10.022;2023-02-28T01:30:11;11.43;;;6.65;;
58928;SDS011;44713;53.378;10.022;2023-02-28T01:32:37;13.88;;;6.55;;
58928;SDS011;44713;53.378;10.022;2023-02-28T01:35:02;11.18;;;5.80;;
58928;SDS011;44713;53.378;10.022;2023-02-28T01:37:27;12.32;;;6.47;;
58928;SDS011;44713;53.378;10.022;2023-02-28T01:39:53;13.80;;;6.35;;
58928;SDS011;44713;53.378;10.022;2023-02-28T01:42:19;11.77;;;6.13;;
58928;SDS011;44713;53.378;10.022;2023-02-28T01:50:00;9.73;;;5.45;;
58928;SDS011;44713;53.378;10.022;2023-02-28T01:52:29;14.07;;;5.60;;
58928;SDS011;44713;53.378;10.022;2023-02-28T01:54:56;7.90;;;5.22;;
58928;SDS011;44713;53.378;10.022;2023-02-28T01:57:28;7.78;;;4.95;;
58928;SDS011;44713;53.378;10.022;2023-02-28T02:00:04;8.90;;;5.50;;
58928;SDS011;44713;53.378;10.022;2023-02-28T02:02:38;8.25;;;4.93;;
58928;SDS011;44713;53.378;10.022;2023-02-28T02:05:05;8.95;;;5.10;;
58928;SDS011;44713;53.378;10.022;2023-02-28T02:07:33;9.23;;;5.20;;
58928;SDS011;44713;53.378;10.022;2023-02-28T02:10:05;7.40;;;4.78;;
58928;SDS011;44713;53.378;10.022;2023-02-28T02:15:32;8.32;;;5.38;;
58928;SDS011;44713;53.378;10.022;2023-02-28T02:18:06;9.18;;;5.65;;
58928;SDS011;44713;53.378;10.022;2023-02-28T02:31:39;8.05;;;5.32;;
58928;SDS011;44713;53.378;10.022;2023-02-28T02:37:08;8.07;;;4.82;;
58928;SDS011;44713;53.378;10.022;2023-02-28T02:45:21;8.93;;;5.13;;
58928;SDS011;44713;53.378;10.022;2023-02-28T02:47:48;10.40;;;5.53;;
58928;SDS011;44713;53.378;10.022;2023-02-28T02:50:17;11.07;;;4.90;;
58928;SDS011;44713;53.378;10.022;2023-02-28T02:52:48;11.48;;;4.70;;
58928;SDS011;44713;53.378;10.022;2023-02-28T02:55:19;12.18;;;4.95;;
58928;SDS011;44713;53.378;10.022;2023-02-28T02:57:48;9.82;;;5.40;;
58928;SDS011;44713;53.378;10.022;2023-02-28T03:00:18;7.88;;;5.10;;
58928;SDS011;44713;53.378;10.022;2023-02-28T03:02:47;10.98;;;5.15;;
58928;SDS011;44713;53.378;10.022;2023-02-28T03:05:19;7.82;;;4.88;;
58928;SDS011;44713;53.378;10.022;2023-02-28T03:07:49;10.20;;;4.97;;
58928;SDS011;44713;53.378;10.022;2023-02-28T03:13:06;8.88;;;4.40;;
58928;SDS011;44713;53.378;10.022;2023-02-28T03:15:43;11.25;;;5.20;;
58928;SDS011;44713;53.378;10.022;2023-02-28T03:21:09;7.87;;;4.60;;
58928;SDS011;44713;53.378;10.022;2023-02-28T03:23:38;10.60;;;5.70;;
58928;SDS011;44713;53.378;10.022;2023-02-28T03:26:19;5.88;;;4.10;;
58928;SDS011;44713;53.378;10.022;2023-02-28T03:31:34;8.90;;;4.32;;
58928;SDS011;44713;53.378;10.022;2023-02-28T03:34:10;8.10;;;4.13;;
58928;SDS011;44713;53.378;10.022;2023-02-28T03:36:47;9.18;;;3.95;;
58928;SDS011;44713;53.378;10.022;2023-02-28T03:39:29;7.53;;;4.60;;
58928;SDS011;44713;53.378;10.022;2023-02-28T03:42:01;8.15;;;4.35;;
58928;SDS011;44713;53.378;10.022;2023-02-28T03:44:36;7.93;;;4.30;;
58928;SDS011;44713;53.378;10.022;2023-02-28T03:47:09;7.10;;;4.73;;
58928;SDS011;44713;53.378;10.022;2023-02-28T03:49:44;7.70;;;4.78;;
58928;SDS011;44713;53.378;10.022;2023-02-28T03:52:14;7.53;;;4.65;;
58928;SDS011;44713;53.378;10.022;2023-02-28T03:54:44;6.85;;;4.57;;
58928;SDS011;44713;53.378;10.022;2023-02-28T04:00:18;8.40;;;4.65;;
58928;SDS011;44713;53.378;10.022;2023-02-28T04:02:50;7.85;;;4.70;;
58928;SDS011;44713;53.378;10.022;2023-02-28T04:05:18;8.90;;;5.00;;
58928;SDS011;44713;53.378;10.022;2023-02-28T04:07:44;7.40;;;5.00;;
58928;SDS011;44713;53.378;10.022;2023-02-28T04:10:11;7.35;;;4.03;;
58928;SDS011;44713;53.378;10.022;2023-02-28T04:12:36;9.93;;;4.70;;
58928;SDS011;44713;53.378;10.022;2023-02-28T04:15:02;8.00;;;4.32;;
58928;SDS011;44713;53.378;10.022;2023-02-28T04:17:28;9.07;;;4.32;;
58928;SDS011;44713;53.378;10.022;2023-02-28T04:19:53;6.47;;;3.92;;
58928;SDS011;44713;53.378;10.022;2023-02-28T04:22:22;7.22;;;4.43;;
58928;SDS011;44713;53.378;10.022;2023-02-28T04:24:47;8.65;;;4.88;;
58928;SDS011;44713;53.378;10.022;2023-02-28T04:27:12;8.40;;;4.63;;
58928;SDS011;44713;53.378;10.022;2023-02-28T04:29:40;10.35;;;4.15;;
58928;SDS011;44713;53.378;10.022;2023-02-28T04:32:09;8.10;;;4.20;;
58928;SDS011;44713;53.378;10.022;2023-02-28T04:34:35;9.18;;;4.03;;
58928;SDS011;44713;53.378;10.022;2023-02-28T04:37:02;9.80;;;3.95;;
58928;SDS011;44713;53.378;10.022;2023-02-28T04:39:28;6.25;;;3.90;;
58928;SDS011;44713;53.378;10.022;2023-02-28T04:41:53;7.10;;;4.32;;
58928;SDS011;44713;53.378;10.022;2023-02-28T04:44:18;8.57;;;4.57;;
58928;SDS011;44713;53.378;10.022;2023-02-28T04:46:47;7.68;;;4.25;;
58928;SDS011;44713;53.378;10.022;2023-02-28T04:49:13;6.88;;;4.10;;
58928;SDS011;44713;53.378;10.022;2023-02-28T04:51:39;10.60;;;4.00;;
58928;SDS011;44713;53.378;10.022;2023-02-28T04:54:05;9.15;;;4.40;;
58928;SDS011;44713;53.378;10.022;2023-02-28T04:56:31;9.77;;;3.97;;
58928;SDS011;44713;53.378;10.022;2023-02-28T04:58:56;7.32;;;3.90;;
58928;SDS011;44713;53.378;10.022;2023-02-28T05:01:23;7.15;;;3.95;;
58928;SDS011;44713;53.378;10.022;2023-02-28T05:03:50;7.88;;;3.85;;
58928;SDS011;44713;53.378;10.022;2023-02-28T05:06:17;8.18;;;4.20;;
58928;SDS011;44713;53.378;10.022;2023-02-28T05:08:43;6.90;;;3.95;;
58928;SDS011;44713;53.378;10.022;2023-02-28T05:11:17;9.60;;;4.72;;
58928;SDS011;44713;53.378;10.022;2023-02-28T05:13:44;7.15;;;3.78;;
58928;SDS011;44713;53.378;10.022;2023-02-28T05:16:10;9.55;;;3.63;;
58928;SDS011;44713;53.378;10.022;2023-02-28T05:18:36;7.25;;;3.75;;
58928;SDS011;44713;53.378;10.022;2023-02-28T05:21:01;7.05;;;3.72;;
58928;SDS011;44713;53.378;10.022;2023-02-28T05:23:27;8.15;;;4.32;;
58928;SDS011;44713;53.378;10.022;2023-02-28T05:25:53;6.88;;;4.45;;
58928;SDS011;44713;53.378;10.022;2023-02-28T05:28:19;6.90;;;3.88;;
58928;SDS011;44713;53.378;10.022;2023-02-28T05:30:45;9.43;;;4.65;;
58928;SDS011;44713;53.378;10.022;2023-02-28T05:33:11;11.15;;;4.40;;
58928;SDS011;44713;53.378;10.022;2023-02-28T05:35:37;6.10;;;4.07;;
58928;SDS011;44713;53.378;10.022;2023-02-28T05:38:04;8.85;;;4.15;;
58928;SDS011;44713;53.378;10.022;2023-02-28T05:40:29;8.90;;;4.35;;
58928;SDS011;44713;53.378;10.022;2023-02-28T05:42:54;8.35;;;3.75;;
58928;SDS011;44713;53.378;10.022;2023-02-28T05:45:20;7.40;;;3.80;;
58928;SDS011;44713;53.378;10.022;2023-02-28T05:47:45;7.75;;;3.88;;
58928;SDS011;44713;53.378;10.022;2023-02-28T05:50:10;5.43;;;3.50;;
58928;SDS011;44713;53.378;10.022;2023-02-28T05:52:36;6.18;;;3.38;;
58928;SDS011;44713;53.378;10.022;2023-02-28T05:55:02;10.40;;;4.30;;
58928;SDS011;44713;53.378;10.022;2023-02-28T05:57:28;10.55;;;4.47;;
58928;SDS011;44713;53.378;10.022;2023-02-28T05:59:54;6.80;;;3.92;;
58928;SDS011;44713;53.378;10.022;2023-02-28T06:02:19;9.68;;;4.15;;
58928;SDS011;44713;53.378;10.022;2023-02-28T06:04:44;8.32;;;4.40;;
58928;SDS011;44713;53.378;10.022;2023-02-28T06:07:10;9.30;;;3.80;;
58928;SDS011;44713;53.378;10.022;2023-02-28T06:09:36;6.60;;;3.55;;
58928;SDS011;44713;53.378;10.022;2023-02-28T06:12:03;6.97;;;4.30;;
58928;SDS011;44713;53.378;10.022;2023-02-28T06:14:30;7.38;;;4.03;;
58928;SDS011;44713;53.378;10.022;2023-02-28T06:16:57;10.55;;;5.70;;
58928;SDS011;44713;53.378;10.022;2023-02-28T06:19:23;12.13;;;5.82;;
58928;SDS011;44713;53.378;10.022;2023-02-28T06:21:50;11.90;;;6.22;;
58928;SDS011;44713;53.378;10.022;2023-02-28T06:24:18;12.82;;;6.72;;
58928;SDS011;44713;53.378;10.022;2023-02-28T06:26:43;10.77;;;5.80;;
58928;SDS011;44713;53.378;10.022;2023-02-28T06:29:09;8.98;;;4.40;;
58928;SDS011;44713;53.378;10.022;2023-02-28T06:31:34;9.00;;;5.13;;
58928;SDS011;44713;53.378;10.022;2023-02-28T06:34:00;7.00;;;4.45;;
58928;SDS011;44713;53.378;10.022;2023-02-28T06:36:25;9.85;;;4.75;;
58928;SDS011;44713;53.378;10.022;2023-02-28T06:38:51;8.75;;;4.38;;
58928;SDS011;44713;53.378;10.022;2023-02-28T06:41:20;8.63;;;4.55;;
58928;SDS011;44713;53.378;10.022;2023-02-28T06:43:46;10.68;;;4.30;;
58928;SDS011;44713;53.378;10.022;2023-02-28T06:46:13;10.48;;;4.10;;
58928;SDS011;44713;53.378;10.022;2023-02-28T06:48:39;7.00;;;3.97;;
58928;SDS011;44713;53.378;10.022;2023-02-28T06:51:06;9.93;;;4.10;;
58928;SDS011;44713;53.378;10.022;2023-02-28T06:53:33;8.20;;;4.05;;
58928;SDS011;44713;53.378;10.022;2023-02-28T06:55:59;8.88;;;4.32;;
58928;SDS011;44713;53.378;10.022;2023-02-28T06:58:24;7.55;;;3.97;;
58928;SDS011;44713;53.378;10.022;2023-02-28T07:00:50;9.50;;;4.13;;
58928;SDS011;44713;53.378;10.022;2023-02-28T07:03:17;8.20;;;3.92;;
58928;SDS011;44713;53.378;10.022;2023-02-28T07:05:43;7.72;;;3.63;;
58928;SDS011;44713;53.378;10.022;2023-02-28T07:08:09;8.70;;;4.28;;
58928;SDS011;44713;53.378;10.022;2023-02-28T07:10:38;6.72;;;3.60;;
58928;SDS011;44713;53.378;10.022;2023-02-28T07:13:04;8.52;;;4.10;;
58928;SDS011;44713;53.378;10.022;2023-02-28T07:15:30;8.60;;;4.57;;
58928;SDS011;44713;53.378;10.022;2023-02-28T07:17:55;7.05;;;3.47;;
58928;SDS011;44713;53.378;10.022;2023-02-28T07:20:21;9.68;;;4.60;;
58928;SDS011;44713;53.378;10.022;2023-02-28T07:22:48;10.48;;;3.92;;
58928;SDS011;44713;53.378;10.022;2023-02-28T07:25:20;9.82;;;4.72;;
58928;SDS011;44713;53.378;10.022;2023-02-28T07:27:46;7.93;;;4.32;;
58928;SDS011;44713;53.378;10.022;2023-02-28T07:30:12;7.88;;;5.07;;
58928;SDS011;44713;53.378;10.022;2023-02-28T07:32:37;11.60;;;4.43;;
58928;SDS011;44713;53.378;10.022;2023-02-28T07:35:03;9.32;;;4.68;;
58928;SDS011;44713;53.378;10.022;2023-02-28T07:37:28;10.05;;;4.60;;
58928;SDS011;44713;53.378;10.022;2023-02-28T07:39:56;14.60;;;4.68;;
58928;SDS011;44713;53.378;10.022;2023-02-28T07:42:22;8.10;;;4.43;;
58928;SDS011;44713;53.378;10.022;2023-02-28T07:44:48;9.55;;;4.50;;
58928;SDS011;44713;53.378;10.022;2023-02-28T07:47:13;9.93;;;4.68;;
58928;SDS011;44713;53.378;10.022;2023-02-28T07:49:38;10.13;;;4.85;;
58928;SDS011;44713;53.378;10.022;2023-02-28T07:52:05;7.15;;;4.22;;
58928;SDS011;44713;53.378;10.022;2023-02-28T07:54:31;6.80;;;4.35;;
58928;SDS011;44713;53.378;10.022;2023-02-28T07:56:58;8.98;;;4.65;;
58928;SDS011;44713;53.378;10.022;2023-02-28T07:59:23;11.43;;;5.05;;
58928;SDS011;44713;53.378;10.022;2023-02-28T08:01:49;9.35;;;4.53;;
58928;SDS011;44713;53.378;10.022;2023-02-28T08:04:15;8.40;;;4.85;;
58928;SDS011;44713;53.378;10.022;2023-02-28T08:06:42;13.10;;;4.88;;
58928;SDS011;44713;53.378;10.022;2023-02-28T08:09:10;10.85;;;5.00;;
58928;SDS011;44713;53.378;10.022;2023-02-28T08:11:36;10.68;;;4.60;;
58928;SDS011;44713;53.378;10.022;2023-02-28T08:14:01;7.85;;;4.35;;
58928;SDS011;44713;53.378;10.022;2023-02-28T08:16:27;7.03;;;4.88;;
58928;SDS011;44713;53.378;10.022;2023-02-28T08:18:52;8.90;;;4.75;;
58928;SDS011;44713;53.378;10.022;2023-02-28T08:21:18;9.43;;;4.50;;
58928;SDS011;44713;53.378;10.022;2023-02-28T08:23:48;8.43;;;4.07;;
58928;SDS011;44713;53.378;10.022;2023-02-28T08:26:15;8.77;;;4.50;;
58928;SDS011;44713;53.378;10.022;2023-02-28T08:28:41;7.43;;;4.22;;
58928;SDS011;44713;53.378;10.022;2023-02-28T08:31:07;7.82;;;4.10;;
58928;SDS011;44713;53.378;10.022;2023-02-28T08:33:37;6.35;;;3.58;;
58928;SDS011;44713;53.378;10.022;2023-02-28T08:36:04;6.13;;;3.92;;
58928;SDS011;44713;53.378;10.022;2023-02-28T08:38:30;8.40;;;3.42;;
58928;SDS011;44713;53.378;10.022;2023-02-28T08:41:03;9.85;;;4.20;;
58928;SDS011;44713;53.378;10.022;2023-02-28T08:43:32;11.90;;;3.30;;
58928;SDS011;44713;53.378;10.022;2023-02-28T08:45:58;6.47;;;3.38;;
58928;SDS011;44713;53.378;10.022;2023-02-28T08:48:28;5.05;;;3.45;;
58928;SDS011;44713;53.378;10.022;2023-02-28T08:50:55;6.93;;;3.63;;
58928;SDS011;44713;53.378;10.022;2023-02-28T08:53:25;6.72;;;3.75;;
58928;SDS011;44713;53.378;10.022;2023-02-28T08:56:01;5.75;;;3.25;;
58928;SDS011;44713;53.378;10.022;2023-02-28T08:58:32;8.52;;;3.00;;
58928;SDS011;44713;53.378;10.022;2023-02-28T09:00:59;8.75;;;3.10;;
58928;SDS011;44713;53.378;10.022;2023-02-28T09:03:25;5.43;;;3.20;;
58928;SDS011;44713;53.378;10.022;2023-02-28T09:05:55;7.20;;;2.80;;
58928;SDS011;44713;53.378;10.022;2023-02-28T09:08:23;6.45;;;3.15;;
58928;SDS011;44713;53.378;10.022;2023-02-28T09:10:49;5.70;;;2.83;;
58928;SDS011;44713;53.378;10.022;2023-02-28T09:13:15;7.38;;;3.20;;
58928;SDS011;44713;53.378;10.022;2023-02-28T09:15:40;8.77;;;3.00;;
58928;SDS011;44713;53.378;10.022;2023-02-28T09:18:05;4.38;;;2.10;;
58928;SDS011;44713;53.378;10.022;2023-02-28T09:20:31;4.40;;;2.38;;
58928;SDS011;44713;53.378;10.022;2023-02-28T09:22:56;3.45;;;1.77;;
58928;SDS011;44713;53.378;10.022;2023-02-28T09:25:21;2.55;;;1.60;;
58928;SDS011;44713;53.378;10.022;2023-02-28T09:27:47;4.55;;;1.80;;
58928;SDS011;44713;53.378;10.022;2023-02-28T09:30:12;3.53;;;1.65;;
58928;SDS011;44713;53.378;10.022;2023-02-28T09:32:38;2.85;;;1.40;;
58928;SDS011;44713;53.378;10.022;2023-02-28T09:35:03;2.72;;;1.70;;
58928;SDS011;44713;53.378;10.022;2023-02-28T09:37:30;7.40;;;1.70;;
58928;SDS011;44713;53.378;10.022;2023-02-28T09:39:56;2.97;;;1.20;;
58928;SDS011;44713;53.378;10.022;2023-02-28T09:42:23;1.02;;;0.60;;
58928;SDS011;44713;53.378;10.022;2023-02-28T09:44:55;2.63;;;1.00;;
58928;SDS011;44713;53.378;10.022;2023-02-28T09:47:45;2.15;;;1.73;;
58928;SDS011;44713;53.378;10.022;2023-02-28T09:50:22;1.65;;;0.77;;
58928;SDS011;44713;53.378;10.022;2023-02-28T09:52:51;0.40;;;0.30;;
58928;SDS011;44713;53.378;10.022;2023-02-28T09:57:47;1.77;;;0.93;;
58928;SDS011;44713;53.378;10.022;2023-02-28T10:05:51;2.42;;;0.63;;
58928;SDS011;44713;53.378;10.022;2023-02-28T10:08:21;1.67;;;0.50;;
58928;SDS011;44713;53.378;10.022;2023-02-28T10:10:53;2.25;;;0.57;;
58928;SDS011;44713;53.378;10.022;2023-02-28T10:13:27;1.73;;;0.73;;
58928;SDS011;44713;53.378;10.022;2023-02-28T10:16:05;1.63;;;0.85;;
58928;SDS011;44713;53.378;10.022;2023-02-28T10:18:43;2.17;;;0.85;;
58928;SDS011;44713;53.378;10.022;2023-02-28T10:21:15;3.00;;;1.05;;
58928;SDS011;44713;53.378;10.022;2023-02-28T10:23:45;2.10;;;0.77;;
58928;SDS011;44713;53.378;10.022;2023-02-28T10:26:13;1.17;;;0.65;;
58928;SDS011;44713;53.378;10.022;2023-02-28T10:28:43;3.08;;;1.13;;
58928;SDS011;44713;53.378;10.022;2023-02-28T10:31:19;3.75;;;1.40;;
58928;SDS011;44713;53.378;10.022;2023-02-28T10:33:45;2.42;;;1.00;;
58928;SDS011;44713;53.378;10.022;2023-02-28T10:36:13;3.92;;;1.48;;
58928;SDS011;44713;53.378;10.022;2023-02-28T10:38:42;6.70;;;1.60;;
58928;SDS011;44713;53.378;10.022;2023-02-28T10:41:15;2.08;;;0.80;;
58928;SDS011;44713;53.378;10.022;2023-02-28T10:43:51;4.10;;;1.08;;
58928;SDS011;44713;53.378;10.022;2023-02-28T10:46:18;1.77;;;0.90;;
58928;SDS011;44713;53.378;10.022;2023-02-28T10:49:07;3.10;;;1.20;;
58928;SDS011;44713;53.378;10.022;2023-02-28T10:51:40;1.63;;;0.90;;
58928;SDS011;44713;53.378;10.022;2023-02-28T10:54:06;2.55;;;0.93;;
58928;SDS011;44713;53.378;10.022;2023-02-28T10:56:41;3.20;;;1.02;;
58928;SDS011;44713;53.378;10.022;2023-02-28T11:01:52;2.83;;;1.30;;
58928;SDS011;44713;53.378;10.022;2023-02-28T11:04:19;1.75;;;1.10;;
58928;SDS011;44713;53.378;10.022;2023-02-28T11:07:02;2.78;;;1.48;;
58928;SDS011;44713;53.378;10.022;2023-02-28T11:09:33;4.10;;;1.20;;
58928;SDS011;44713;53.378;10.022;2023-02-28T11:12:00;5.93;;;1.30;;
58928;SDS011;44713;53.378;10.022;2023-02-28T11:14:30;1.58;;;0.98;;
58928;SDS011;44713;53.378;10.022;2023-02-28T11:17:02;5.28;;;1.15;;
58928;SDS011;44713;53.378;10.022;2023-02-28T11:19:39;4.68;;;1.30;;
58928;SDS011;44713;53.378;10.022;2023-02-28T11:22:09;2.17;;;1.05;;
58928;SDS011;44713;53.378;10.022;2023-02-28T11:27:24;2.67;;;1.10;;
58928;SDS011;44713;53.378;10.022;2023-02-28T11:30:22;2.17;;;1.20;;
58928;SDS011;44713;53.378;10.022;2023-02-28T11:32:59;2.22;;;1.35;;
58928;SDS011;44713;53.378;10.022;2023-02-28T11:35:27;1.45;;;1.00;;
58928;SDS011;44713;53.378;10.022;2023-02-28T11:37:53;3.25;;;1.10;;
58928;SDS011;44713;53.378;10.022;2023-02-28T11:40:21;1.98;;;1.00;;
58928;SDS011;44713;53.378;10.022;2023-02-28T11:45:41;2.88;;;1.30;;
58928;SDS011;44713;53.378;10.022;2023-02-28T11:48:18;2.65;;;1.20;;
58928;SDS011;44713;53.378;10.022;2023-02-28T11:56:31;3.35;;;1.10;;
58928;SDS011;44713;53.378;10.022;2023-02-28T11:59:09;5.35;;;1.30;;
58928;SDS011;44713;53.378;10.022;2023-02-28T12:02:05;3.17;;;1.20;;
58928;SDS011;44713;53.378;10.022;2023-02-28T12:07:56;2.70;;;1.30;;
58928;SDS011;44713;53.378;10.022;2023-02-28T12:13:39;3.20;;;1.52;;
58928;SDS011;44713;53.378;10.022;2023-02-28T12:16:18;2.20;;;0.95;;
58928;SDS011;44713;53.378;10.022;2023-02-28T12:26:40;1.77;;;0.90;;
58928;SDS011;44713;53.378;10.022;2023-02-28T12:31:36;3.35;;;1.20;;
58928;SDS011;44713;53.378;10.022;2023-02-28T12:34:10;1.60;;;1.10;;
58928;SDS011;44713;53.378;10.022;2023-02-28T12:36:41;1.75;;;1.02;;
58928;SDS011;44713;53.378;10.022;2023-02-28T12:41:45;2.22;;;1.00;;
58928;SDS011;44713;53.378;10.022;2023-02-28T12:44:17;1.98;;;1.10;;
58928;SDS011;44713;53.378;10.022;2023-02-28T12:46:54;1.77;;;1.20;;
58928;SDS011;44713;53.378;10.022;2023-02-28T12:49:25;1.92;;;1.25;;
58928;SDS011;44713;53.378;10.022;2023-02-28T12:51:56;2.72;;;1.27;;
58928;SDS011;44713;53.378;10.022;2023-02-28T12:57:16;2.40;;;1.40;;
58928;SDS011;44713;53.378;10.022;2023-02-28T12:59:52;1.80;;;1.00;;
58928;SDS011;44713;53.378;10.022;2023-02-28T13:02:33;3.00;;;0.95;;
58928;SDS011;44713;53.378;10.022;2023-02-28T13:11:33;4.30;;;0.90;;
58928;SDS011;44713;53.378;10.022;2023-02-28T13:14:05;2.53;;;1.15;;
58928;SDS011;44713;53.378;10.022;2023-02-28T13:19:16;3.83;;;1.13;;
58928;SDS011;44713;53.378;10.022;2023-02-28T13:21:44;1.67;;;1.00;;
58928;SDS011;44713;53.378;10.022;2023-02-28T13:24:10;2.72;;;0.90;;
58928;SDS011;44713;53.378;10.022;2023-02-28T13:32:18;2.88;;;0.98;;
58928;SDS011;44713;53.378;10.022;2023-02-28T13:34:36;3.53;;;0.90;;
58928;SDS011;44713;53.378;10.022;2023-02-28T13:42:35;1.63;;;1.20;;
58928;SDS011;44713;53.378;10.022;2023-02-28T13:45:24;4.28;;;1.00;;
58928;SDS011;44713;53.378;10.022;2023-02-28T13:48:04;1.88;;;0.75;;
58928;SDS011;44713;53.378;10.022;2023-02-28T13:50:41;2.08;;;0.73;;
58928;SDS011;44713;53.378;10.022;2023-02-28T13:58:52;2.00;;;0.98;;
58928;SDS011;44713;53.378;10.022;2023-02-28T14:01:43;1.55;;;1.05;;
58928;SDS011;44713;53.378;10.022;2023-02-28T14:07:07;1.23;;;0.95;;
58928;SDS011;44713;53.378;10.022;2023-02-28T14:09:38;1.67;;;0.90;;
58928;SDS011;44713;53.378;10.022;2023-02-28T14:17:54;2.10;;;1.10;;
58928;SDS011;44713;53.378;10.022;2023-02-28T14:20:21;2.10;;;1.20;;
58928;SDS011;44713;53.378;10.022;2023-02-28T14:22:53;2.10;;;1.10;;
58928;SDS011;44713;53.378;10.022;2023-02-28T14:28:10;2.13;;;1.00;;
58928;SDS011;44713;53.378;10.022;2023-02-28T14:31:06;1.58;;;0.90;;
58928;SDS011;44713;53.378;10.022;2023-02-28T14:36:45;2.03;;;1.15;;
58928;SDS011;44713;53.378;10.022;2023-02-28T14:39:16;2.63;;;1.15;;
58928;SDS011;44713;53.378;10.022;2023-02-28T14:41:45;1.98;;;1.00;;
58928;SDS011;44713;53.378;10.022;2023-02-28T14:44:18;2.10;;;1.10;;
58928;SDS011;44713;53.378;10.022;2023-02-28T14:46:49;2.00;;;1.08;;
58928;SDS011;44713;53.378;10.022;2023-02-28T14:49:19;3.00;;;1.00;;
58928;SDS011;44713;53.378;10.022;2023-02-28T14:51:49;3.08;;;1.35;;
58928;SDS011;44713;53.378;10.022;2023-02-28T14:54:26;1.40;;;1.10;;
58928;SDS011;44713;53.378;10.022;2023-02-28T14:56:51;2.88;;;1.30;;
58928;SDS011;44713;53.378;10.022;2023-02-28T14:59:25;4.82;;;1.48;;
58928;SDS011;44713;53.378;10.022;2023-02-28T15:04:39;4.13;;;1.27;;
58928;SDS011;44713;53.378;10.022;2023-02-28T15:07:07;0.95;;;0.85;;
58928;SDS011;44713;53.378;10.022;2023-02-28T15:09:34;3.03;;;0.90;;
58928;SDS011;44713;53.378;10.022;2023-02-28T15:11:59;3.92;;;1.38;;
58928;SDS011;44713;53.378;10.022;2023-02-28T15:14:24;1.60;;;1.20;;
58928;SDS011;44713;53.378;10.022;2023-02-28T15:16:55;3.08;;;1.00;;
58928;SDS011;44713;53.378;10.022;2023-02-28T15:19:34;2.67;;;1.15;;
58928;SDS011;44713;53.378;10.022;2023-02-28T15:22:06;1.73;;;1.00;;
58928;SDS011;44713;53.378;10.022;2023-02-28T15:27:09;1.67;;;1.17;;
58928;SDS011;44713;53.378;10.022;2023-02-28T15:29:47;3.78;;;1.40;;
58928;SDS011;44713;53.378;10.022;2023-02-28T15:32:29;2.88;;;1.50;;
58928;SDS011;44713;53.378;10.022;2023-02-28T15:34:57;2.17;;;1.35;;
58928;SDS011;44713;53.378;10.022;2023-02-28T15:37:37;2.20;;;1.20;;
58928;SDS011;44713;53.378;10.022;2023-02-28T15:40:26;2.03;;;1.30;;
58928;SDS011;44713;53.378;10.022;2023-02-28T15:43:04;1.95;;;1.10;;
58928;SDS011;44713;53.378;10.022;2023-02-28T15:45:51;3.42;;;1.42;;
58928;SDS011;44713;53.378;10.022;2023-02-28T15:48:22;2.40;;;1.40;;
58928;SDS011;44713;53.378;10.022;2023-02-28T15:50:57;3.67;;;1.60;;
58928;SDS011;44713;53.378;10.022;2023-02-28T15:53:36;3.15;;;1.35;;
58928;SDS011;44713;53.378;10.022;2023-02-28T15:56:25;2.80;;;1.80;;
58928;SDS011;44713;53.378;10.022;2023-02-28T15:59:00;1.85;;;1.20;;
58928;SDS011;44713;53.378;10.022;2023-02-28T16:01:29;1.85;;;1.02;;
58928;SDS011;44713;53.378;10.022;2023-02-28T16:03:57;2.08;;;1.27;;
58928;SDS011;44713;53.378;10.022;2023-02-28T16:06:35;2.78;;;1.10;;
58928;SDS011;44713;53.378;10.022;2023-02-28T16:09:03;4.57;;;1.30;;
58928;SDS011;44713;53.378;10.022;2023-02-28T16:11:33;2.35;;;1.55;;
58928;SDS011;44713;53.378;10.022;2023-02-28T16:14:00;2.40;;;1.33;;
58928;SDS011;44713;53.378;10.022;2023-02-28T16:16:25;2.58;;;1.40;;
58928;SDS011;44713;53.378;10.022;2023-02-28T16:18:51;2.80;;;1.50;;
58928;SDS011;44713;53.378;10.022;2023-02-28T16:21:17;2.63;;;1.25;;
58928;SDS011;44713;53.378;10.022;2023-02-28T16:23:43;3.85;;;2.10;;
58928;SDS011;44713;53.378;10.022;2023-02-28T16:26:09;1.70;;;1.20;;
58928;SDS011;44713;53.378;10.022;2023-02-28T16:28:44;2.80;;;1.17;;
58928;SDS011;44713;53.378;10.022;2023-02-28T16:31:10;2.55;;;1.02;;
58928;SDS011;44713;53.378;10.022;2023-02-28T16:33:41;3.33;;;1.63;;
58928;SDS011;44713;53.378;10.022;2023-02-28T16:36:09;1.35;;;1.05;;
58928;SDS011;44713;53.378;10.022;2023-02-28T16:38:37;2.80;;;1.50;;
58928;SDS011;44713;53.378;10.022;2023-02-28T16:41:03;2.42;;;1.15;;
58928;SDS011;44713;53.378;10.022;2023-02-28T16:43:30;1.70;;;1.10;;
58928;SDS011;44713;53.378;10.022;2023-02-28T16:45:56;2.03;;;0.98;;
58928;SDS011;44713;53.378;10.022;2023-02-28T16:48:23;1.40;;;1.00;;
58928;SDS011;44713;53.378;10.022;2023-02-28T16:50:49;2.60;;;0.98;;